sensor_id;sensor_type;location;lat;lon;timestamp;pressure;altitude;pressure_sealevel;temperature;humidity
19777;BME280;10047;42.490;26.012;2022-09-20T00:01:17;99852.47;;;15.50;100.00
19777;BME280;10047;42.490;26.012;2022-09-20T00:03:47;99861.13;;;15.65;100.00
19777;BME280;10047;42.490;26.012;2022-09-20T00:06:17;99880.28;;;15.75;100.00
19777;BME280;10047;42.490;26.012;2022-09-20T00:08:44;99918.91;;;16.04;100.00
19777;BME280;10047;42.490;26.012;2022-09-20T00:11:18;99895.75;;;15.89;100.00
19777;BME280;10047;42.490;26.012;2022-09-20T00:13:46;99918.50;;;16.12;100.00
19777;BME280;10047;42.490;26.012;2022-09-20T00:16:14;99884.88;;;16.01;100.00
19777;BME280;10047;42.490;26.012;2022-09-20T00:18:40;99893.56;;;15.98;100.00
19777;BME280;10047;42.490;26.012;2022-09-20T00:21:06;99927.41;;;16.05;100.00
19777;BME280;10047;42.490;26.012;2022-09-20T00:23:32;99886.88;;;15.79;100.00
19777;BME280;10047;42.490;26.012;2022-09-20T00:26:00;99924.41;;;15.97;100.00
19777;BME280;10047;42.490;26.012;2022-09-20T00:28:26;99889.44;;;15.79;100.00
19777;BME280;10047;42.490;26.012;2022-09-20T00:30:52;99889.38;;;15.63;100.00
19777;BME280;10047;42.490;26.012;2022-09-20T00:33:19;99907.81;;;15.87;100.00
19777;BME280;10047;42.490;26.012;2022-09-20T00:35:45;99882.16;;;15.54;100.00
19777;BME280;10047;42.490;26.012;2022-09-20T00:38:12;99886.25;;;15.58;100.00
19777;BME280;10047;42.490;26.012;2022-09-20T00:40:39;99887.13;;;15.74;100.00
19777;BME280;10047;42.490;26.012;2022-09-20T00:43:05;99914.50;;;15.74;100.00
19777;BME280;10047;42.490;26.012;2022-09-20T00:45:30;99916.72;;;15.97;100.00
19777;BME280;10047;42.490;26.012;2022-09-20T00:48:03;99931.59;;;15.73;100.00
19777;BME280;10047;42.490;26.012;2022-09-20T00:50:42;99935.44;;;15.82;100.00
19777;BME280;10047;42.490;26.012;2022-09-20T00:53:12;99959.28;;;15.84;100.00
19777;BME280;10047;42.490;26.012;2022-09-20T00:55:43;99943.22;;;15.63;100.00
19777;BME280;10047;42.490;26.012;2022-09-20T00:58:11;99934.31;;;15.53;100.00
19777;BME280;10047;42.490;26.012;2022-09-20T01:00:38;99977.81;;;15.36;100.00
19777;BME280;10047;42.490;26.012;2022-09-20T01:03:06;99973.91;;;15.29;100.00
19777;BME280;10047;42.490;26.012;2022-09-20T01:05:34;99952.41;;;15.14;100.00
19777;BME280;10047;42.490;26.012;2022-09-20T01:08:00;99967.19;;;15.26;100.00
19777;BME280;10047;42.490;26.012;2022-09-20T01:10:27;99981.44;;;15.32;100.00
19777;BME280;10047;42.490;26.012;2022-09-20T01:12:53;99959.25;;;15.14;100.00
19777;BME280;10047;42.490;26.012;2022-09-20T01:15:19;99973.63;;;15.35;100.00
19777;BME280;10047;42.490;26.012;2022-09-20T01:17:49;99951.44;;;15.70;100.00
19777;BME280;10047;42.490;26.012;2022-09-20T01:20:28;99971.63;;;15.93;100.00
19777;BME280;10047;42.490;26.012;2022-09-20T01:28:32;99907.53;;;14.70;100.00
19777;BME280;10047;42.490;26.012;2022-09-20T01:33:52;99959.06;;;15.00;100.00
19777;BME280;10047;42.490;26.012;2022-09-20T01:36:24;99964.81;;;15.05;100.00
19777;BME280;10047;42.490;26.012;2022-09-20T01:42:09;99972.50;;;14.67;100.00
19777;BME280;10047;42.490;26.012;2022-09-20T01:47:31;99949.53;;;14.47;100.00
19777;BME280;10047;42.490;26.012;2022-09-20T02:01:27;99974.63;;;15.14;100.00
19777;BME280;10047;42.490;26.012;2022-09-20T02:13:08;99937.75;;;13.84;100.00
19777;BME280;10047;42.490;26.012;2022-09-20T02:26:32;99968.03;;;13.93;100.00
19777;BME280;10047;42.490;26.012;2022-09-20T02:38:53;99967.25;;;14.70;100.00
19777;BME280;10047;42.490;26.012;2022-09-20T02:41:51;99969.03;;;14.87;100.00
19777;BME280;10047;42.490;26.012;2022-09-20T02:58:31;99974.94;;;14.89;100.00
19777;BME280;10047;42.490;26.012;2022-09-20T03:01:16;99964.47;;;14.94;100.00
19777;BME280;10047;42.490;26.012;2022-09-20T03:09:49;99975.25;;;14.63;100.00
19777;BME280;10047;42.490;26.012;2022-09-20T03:18:10;99979.88;;;14.55;100.00
19777;BME280;10047;42.490;26.012;2022-09-20T03:23:21;99944.31;;;14.30;100.00
19777;BME280;10047;42.490;26.012;2022-09-20T03:42:24;99986.44;;;14.42;100.00
19777;BME280;10047;42.490;26.012;2022-09-20T03:53:23;99982.34;;;14.18;100.00
19777;BME280;10047;42.490;26.012;2022-09-20T03:56:14;99990.03;;;14.18;100.00
19777;BME280;10047;42.490;26.012;2022-09-20T04:04:28;100012.72;;;14.25;100.00
19777;BME280;10047;42.490;26.012;2022-09-20T04:07:51;100009.00;;;14.12;100.00
19777;BME280;10047;42.490;26.012;2022-09-20T04:13:06;100022.09;;;14.25;100.00
19777;BME280;10047;42.490;26.012;2022-09-20T04:21:56;100019.31;;;14.31;100.00
19777;BME280;10047;42.490;26.012;2022-09-20T04:28:14;100026.22;;;14.29;100.00
19777;BME280;10047;42.490;26.012;2022-09-20T04:30:41;100016.97;;;14.25;100.00
19777;BME280;10047;42.490;26.012;2022-09-20T04:33:19;100027.97;;;14.27;100.00
19777;BME280;10047;42.490;26.012;2022-09-20T04:38:40;100030.16;;;14.56;100.00
19777;BME280;10047;42.490;26.012;2022-09-20T05:00:55;100044.81;;;14.52;100.00
19777;BME280;10047;42.490;26.012;2022-09-20T05:33:38;100058.50;;;15.82;100.00
19777;BME280;10047;42.490;26.012;2022-09-20T05:39:16;100048.50;;;15.94;100.00
19777;BME280;10047;42.490;26.012;2022-09-20T05:41:56;100046.22;;;15.88;100.00
19777;BME280;10047;42.490;26.012;2022-09-20T05:55:54;100054.00;;;16.55;95.06
19777;BME280;10047;42.490;26.012;2022-09-20T05:58:41;100061.06;;;16.50;92.85
19777;BME280;10047;42.490;26.012;2022-09-20T06:01:25;100035.34;;;16.52;94.73
19777;BME280;10047;42.490;26.012;2022-09-20T06:09:33;100055.31;;;16.79;90.60
19777;BME280;10047;42.490;26.012;2022-09-20T06:12:18;100040.31;;;16.55;89.80
19777;BME280;10047;42.490;26.012;2022-09-20T06:18:24;100065.72;;;16.76;86.19
19777;BME280;10047;42.490;26.012;2022-09-20T06:23:42;100034.16;;;15.90;94.33
19777;BME280;10047;42.490;26.012;2022-09-20T06:26:18;100068.00;;;15.80;98.49
19777;BME280;10047;42.490;26.012;2022-09-20T06:28:50;100077.31;;;16.68;89.97
19777;BME280;10047;42.490;26.012;2022-09-20T06:31:17;100073.38;;;16.93;85.18
19777;BME280;10047;42.490;26.012;2022-09-20T06:33:50;100019.34;;;17.26;81.56
19777;BME280;10047;42.490;26.012;2022-09-20T06:36:34;100063.53;;;17.48;80.68
19777;BME280;10047;42.490;26.012;2022-09-20T06:42:38;100043.06;;;17.62;73.23
19777;BME280;10047;42.490;26.012;2022-09-20T06:45:04;100032.53;;;17.20;72.50
19777;BME280;10047;42.490;26.012;2022-09-20T06:47:29;100044.44;;;18.13;69.15
19777;BME280;10047;42.490;26.012;2022-09-20T06:49:55;100071.66;;;17.72;69.88
19777;BME280;10047;42.490;26.012;2022-09-20T06:52:22;100083.88;;;17.68;67.81
19777;BME280;10047;42.490;26.012;2022-09-20T06:54:50;100042.19;;;17.77;67.22
19777;BME280;10047;42.490;26.012;2022-09-20T06:57:22;100048.03;;;17.65;66.69
19777;BME280;10047;42.490;26.012;2022-09-20T06:59:48;100051.34;;;17.67;66.61
19777;BME280;10047;42.490;26.012;2022-09-20T07:02:13;100082.16;;;18.42;65.15
19777;BME280;10047;42.490;26.012;2022-09-20T07:04:39;100093.38;;;18.27;64.00
19777;BME280;10047;42.490;26.012;2022-09-20T07:07:05;100108.16;;;18.53;59.91
19777;BME280;10047;42.490;26.012;2022-09-20T07:09:31;100095.28;;;17.94;65.09
19777;BME280;10047;42.490;26.012;2022-09-20T07:11:57;100119.81;;;17.54;68.77
19777;BME280;10047;42.490;26.012;2022-09-20T07:14:25;100094.63;;;17.75;66.79
19777;BME280;10047;42.490;26.012;2022-09-20T07:16:54;100086.47;;;18.57;62.57
19777;BME280;10047;42.490;26.012;2022-09-20T07:19:20;100138.94;;;17.80;64.28
19777;BME280;10047;42.490;26.012;2022-09-20T07:21:47;100116.53;;;17.82;68.27
19777;BME280;10047;42.490;26.012;2022-09-20T07:24:12;100115.81;;;17.80;69.68
19777;BME280;10047;42.490;26.012;2022-09-20T07:26:39;100130.50;;;17.78;65.12
19777;BME280;10047;42.490;26.012;2022-09-20T07:29:18;100116.91;;;18.05;64.70
19777;BME280;10047;42.490;26.012;2022-09-20T07:31:43;100109.22;;;17.27;67.35
19777;BME280;10047;42.490;26.012;2022-09-20T07:34:09;100129.50;;;17.65;65.88
19777;BME280;10047;42.490;26.012;2022-09-20T07:36:35;100123.69;;;17.92;66.44
19777;BME280;10047;42.490;26.012;2022-09-20T07:39:01;100130.88;;;18.31;66.27
19777;BME280;10047;42.490;26.012;2022-09-20T07:41:27;100123.72;;;18.80;62.60
19777;BME280;10047;42.490;26.012;2022-09-20T07:43:54;100118.13;;;18.73;59.89
19777;BME280;10047;42.490;26.012;2022-09-20T07:46:43;100084.72;;;18.86;59.87
19777;BME280;10047;42.490;26.012;2022-09-20T07:49:10;100092.91;;;18.64;56.03
19777;BME280;10047;42.490;26.012;2022-09-20T07:51:35;100117.94;;;18.76;53.85
19777;BME280;10047;42.490;26.012;2022-09-20T07:54:01;100141.72;;;18.22;57.68
19777;BME280;10047;42.490;26.012;2022-09-20T07:56:26;100093.00;;;18.63;58.02
19777;BME280;10047;42.490;26.012;2022-09-20T07:58:51;100145.25;;;18.65;57.90
19777;BME280;10047;42.490;26.012;2022-09-20T08:01:17;100105.41;;;18.56;57.55
19777;BME280;10047;42.490;26.012;2022-09-20T08:03:44;100137.84;;;19.45;56.07
19777;BME280;10047;42.490;26.012;2022-09-20T08:06:11;100136.84;;;18.47;55.69
19777;BME280;10047;42.490;26.012;2022-09-20T08:08:39;100100.53;;;18.94;55.28
19777;BME280;10047;42.490;26.012;2022-09-20T08:11:13;100137.72;;;19.04;55.80
19777;BME280;10047;42.490;26.012;2022-09-20T08:13:50;100125.69;;;19.33;56.64
19777;BME280;10047;42.490;26.012;2022-09-20T08:16:17;100131.38;;;19.52;55.45
19777;BME280;10047;42.490;26.012;2022-09-20T08:18:45;100091.78;;;19.25;55.90
19777;BME280;10047;42.490;26.012;2022-09-20T08:21:11;100123.88;;;19.88;53.94
19777;BME280;10047;42.490;26.012;2022-09-20T08:23:39;100123.84;;;20.02;53.11
19777;BME280;10047;42.490;26.012;2022-09-20T08:26:06;100088.09;;;19.96;52.04
19777;BME280;10047;42.490;26.012;2022-09-20T08:28:32;100134.06;;;20.43;50.27
19777;BME280;10047;42.490;26.012;2022-09-20T08:33:31;100097.13;;;20.16;50.20
19777;BME280;10047;42.490;26.012;2022-09-20T08:35:57;100123.63;;;20.44;50.25
19777;BME280;10047;42.490;26.012;2022-09-20T08:38:23;100081.56;;;20.42;50.44
19777;BME280;10047;42.490;26.012;2022-09-20T08:41:14;100115.31;;;19.61;50.56
19777;BME280;10047;42.490;26.012;2022-09-20T08:43:45;100080.13;;;19.86;49.85
19777;BME280;10047;42.490;26.012;2022-09-20T08:46:16;100116.13;;;21.17;48.33
19777;BME280;10047;42.490;26.012;2022-09-20T08:48:44;100078.69;;;20.85;48.15
19777;BME280;10047;42.490;26.012;2022-09-20T08:51:12;100081.78;;;20.39;47.81
19777;BME280;10047;42.490;26.012;2022-09-20T08:53:52;100084.63;;;19.83;48.88
19777;BME280;10047;42.490;26.012;2022-09-20T08:56:19;100093.06;;;20.76;49.05
19777;BME280;10047;42.490;26.012;2022-09-20T08:58:45;100101.09;;;20.46;49.25
19777;BME280;10047;42.490;26.012;2022-09-20T09:01:22;100055.34;;;20.48;48.29
19777;BME280;10047;42.490;26.012;2022-09-20T09:03:57;100089.44;;;21.76;46.96
19777;BME280;10047;42.490;26.012;2022-09-20T09:06:26;100060.09;;;19.90;48.34
19777;BME280;10047;42.490;26.012;2022-09-20T09:08:53;100086.63;;;20.94;47.65
19777;BME280;10047;42.490;26.012;2022-09-20T09:11:20;100061.81;;;20.16;47.84
19777;BME280;10047;42.490;26.012;2022-09-20T09:14:06;100089.66;;;20.76;48.57
19777;BME280;10047;42.490;26.012;2022-09-20T09:16:54;100065.63;;;21.71;46.33
19777;BME280;10047;42.490;26.012;2022-09-20T09:19:30;100081.16;;;20.86;48.27
19777;BME280;10047;42.490;26.012;2022-09-20T09:22:01;100076.34;;;21.30;46.95
19777;BME280;10047;42.490;26.012;2022-09-20T09:24:27;100058.81;;;21.46;46.57
19777;BME280;10047;42.490;26.012;2022-09-20T09:29:32;100022.84;;;21.07;46.07
19777;BME280;10047;42.490;26.012;2022-09-20T09:32:17;100084.47;;;20.88;46.85
19777;BME280;10047;42.490;26.012;2022-09-20T09:34:43;100075.00;;;22.08;45.34
19777;BME280;10047;42.490;26.012;2022-09-20T09:37:25;100070.53;;;20.65;46.20
19777;BME280;10047;42.490;26.012;2022-09-20T09:40:25;100057.50;;;21.88;47.06
19777;BME280;10047;42.490;26.012;2022-09-20T09:42:56;100012.94;;;21.25;45.87
19777;BME280;10047;42.490;26.012;2022-09-20T09:45:29;100075.59;;;22.91;45.40
19777;BME280;10047;42.490;26.012;2022-09-20T09:47:56;100077.59;;;22.19;46.62
19777;BME280;10047;42.490;26.012;2022-09-20T09:50:26;100076.41;;;21.65;46.39
19777;BME280;10047;42.490;26.012;2022-09-20T09:53:01;100068.69;;;21.89;44.83
19777;BME280;10047;42.490;26.012;2022-09-20T09:55:39;100042.97;;;21.51;45.81
19777;BME280;10047;42.490;26.012;2022-09-20T09:58:18;100070.41;;;22.91;43.94
19777;BME280;10047;42.490;26.012;2022-09-20T10:00:48;100085.44;;;22.07;45.68
19777;BME280;10047;42.490;26.012;2022-09-20T10:04:09;100064.53;;;22.21;44.87
19777;BME280;10047;42.490;26.012;2022-09-20T10:09:04;100042.31;;;21.95;44.74
19777;BME280;10047;42.490;26.012;2022-09-20T10:14:48;100074.84;;;22.56;42.82
19777;BME280;10047;42.490;26.012;2022-09-20T10:31:11;100061.47;;;22.84;44.70
19777;BME280;10047;42.490;26.012;2022-09-20T10:33:51;100055.06;;;22.88;44.15
19777;BME280;10047;42.490;26.012;2022-09-20T10:36:59;100060.97;;;23.01;43.86
19777;BME280;10047;42.490;26.012;2022-09-20T10:39:33;100039.19;;;22.13;43.55
19777;BME280;10047;42.490;26.012;2022-09-20T10:47:33;100053.75;;;21.92;44.03
19777;BME280;10047;42.490;26.012;2022-09-20T10:50:23;100058.63;;;22.87;42.64
19777;BME280;10047;42.490;26.012;2022-09-20T10:58:36;100053.88;;;23.99;41.44
19777;BME280;10047;42.490;26.012;2022-09-20T11:08:42;100008.25;;;22.56;43.25
19777;BME280;10047;42.490;26.012;2022-09-20T11:11:18;100036.59;;;22.81;43.76
19777;BME280;10047;42.490;26.012;2022-09-20T11:19:30;100038.28;;;22.36;43.07
19777;BME280;10047;42.490;26.012;2022-09-20T11:22:08;100026.06;;;22.50;43.61
19777;BME280;10047;42.490;26.012;2022-09-20T11:24:37;100024.59;;;23.97;42.33
19777;BME280;10047;42.490;26.012;2022-09-20T11:27:17;100003.88;;;23.12;41.20
19777;BME280;10047;42.490;26.012;2022-09-20T11:30:13;100023.03;;;21.99;44.50
19777;BME280;10047;42.490;26.012;2022-09-20T11:35:24;100016.97;;;23.10;43.66
19777;BME280;10047;42.490;26.012;2022-09-20T11:40:48;100021.06;;;22.02;44.27
19777;BME280;10047;42.490;26.012;2022-09-20T11:43:17;100018.38;;;21.80;44.75
19777;BME280;10047;42.490;26.012;2022-09-20T11:45:46;100024.50;;;22.25;43.62
19777;BME280;10047;42.490;26.012;2022-09-20T11:48:20;99989.19;;;22.35;43.29
19777;BME280;10047;42.490;26.012;2022-09-20T11:56:18;100015.56;;;23.17;41.68
19777;BME280;10047;42.490;26.012;2022-09-20T11:58:47;100016.63;;;22.49;42.60
19777;BME280;10047;42.490;26.012;2022-09-20T12:01:15;100012.88;;;22.53;42.82
19777;BME280;10047;42.490;26.012;2022-09-20T12:03:43;100000.16;;;22.50;43.88
19777;BME280;10047;42.490;26.012;2022-09-20T12:08:48;100007.34;;;22.90;43.31
19777;BME280;10047;42.490;26.012;2022-09-20T12:11:14;99981.34;;;23.55;42.38
19777;BME280;10047;42.490;26.012;2022-09-20T12:13:50;99958.69;;;22.61;42.68
19777;BME280;10047;42.490;26.012;2022-09-20T12:16:39;100011.09;;;22.20;43.08
19777;BME280;10047;42.490;26.012;2022-09-20T12:19:44;100006.50;;;22.46;43.17
19777;BME280;10047;42.490;26.012;2022-09-20T12:24:36;100004.53;;;22.60;41.76
19777;BME280;10047;42.490;26.012;2022-09-20T12:30:02;99987.47;;;21.90;43.14
19777;BME280;10047;42.490;26.012;2022-09-20T12:34:58;99995.41;;;22.32;43.80
19777;BME280;10047;42.490;26.012;2022-09-20T12:37:24;99988.91;;;21.94;44.36
19777;BME280;10047;42.490;26.012;2022-09-20T12:39:52;99954.47;;;22.60;44.13
19777;BME280;10047;42.490;26.012;2022-09-20T12:42:32;99984.97;;;22.89;44.09
19777;BME280;10047;42.490;26.012;2022-09-20T12:45:04;100001.91;;;23.04;44.76
19777;BME280;10047;42.490;26.012;2022-09-20T12:47:33;100004.25;;;22.41;44.34
19777;BME280;10047;42.490;26.012;2022-09-20T12:50:02;99981.75;;;21.39;45.44
19777;BME280;10047;42.490;26.012;2022-09-20T12:52:49;99994.84;;;22.51;46.09
19777;BME280;10047;42.490;26.012;2022-09-20T12:57:57;99978.84;;;20.58;48.54
19777;BME280;10047;42.490;26.012;2022-09-20T13:03:35;100002.44;;;21.74;49.00
19777;BME280;10047;42.490;26.012;2022-09-20T13:09:02;99997.13;;;20.81;50.52
19777;BME280;10047;42.490;26.012;2022-09-20T13:19:20;99985.09;;;22.77;42.05
19777;BME280;10047;42.490;26.012;2022-09-20T13:22:01;99990.38;;;22.86;43.78
19777;BME280;10047;42.490;26.012;2022-09-20T13:24:40;99975.41;;;22.23;43.71
19777;BME280;10047;42.490;26.012;2022-09-20T13:27:30;99980.31;;;23.15;42.25
19777;BME280;10047;42.490;26.012;2022-09-20T13:30:20;99979.81;;;23.10;41.93
19777;BME280;10047;42.490;26.012;2022-09-20T13:32:47;99977.53;;;22.40;42.66
19777;BME280;10047;42.490;26.012;2022-09-20T13:40:25;99986.69;;;22.11;43.30
19777;BME280;10047;42.490;26.012;2022-09-20T13:43:06;99986.09;;;22.08;43.25
19777;BME280;10047;42.490;26.012;2022-09-20T13:45:41;99973.78;;;22.56;43.00
19777;BME280;10047;42.490;26.012;2022-09-20T13:48:07;99984.38;;;23.28;41.54
19777;BME280;10047;42.490;26.012;2022-09-20T13:50:34;99965.72;;;22.92;41.63
19777;BME280;10047;42.490;26.012;2022-09-20T13:53:13;99958.47;;;22.64;41.21
19777;BME280;10047;42.490;26.012;2022-09-20T13:55:40;99966.34;;;22.73;40.63
19777;BME280;10047;42.490;26.012;2022-09-20T14:00:35;99989.31;;;23.43;40.31
19777;BME280;10047;42.490;26.012;2022-09-20T14:03:02;99972.75;;;23.12;40.76
19777;BME280;10047;42.490;26.012;2022-09-20T14:05:29;99935.84;;;22.66;41.92
19777;BME280;10047;42.490;26.012;2022-09-20T14:07:56;99990.13;;;22.45;41.38
19777;BME280;10047;42.490;26.012;2022-09-20T14:10:35;99961.16;;;22.51;42.07
19777;BME280;10047;42.490;26.012;2022-09-20T14:13:05;99956.81;;;22.52;41.91
19777;BME280;10047;42.490;26.012;2022-09-20T14:15:37;99991.66;;;22.92;42.34
19777;BME280;10047;42.490;26.012;2022-09-20T14:18:05;99971.66;;;22.72;43.23
19777;BME280;10047;42.490;26.012;2022-09-20T14:20:32;99985.72;;;23.23;42.01
19777;BME280;10047;42.490;26.012;2022-09-20T14:22:59;99997.84;;;21.66;45.09
19777;BME280;10047;42.490;26.012;2022-09-20T14:25:26;99959.53;;;24.59;40.34
19777;BME280;10047;42.490;26.012;2022-09-20T14:28:24;99996.38;;;25.14;38.81
19777;BME280;10047;42.490;26.012;2022-09-20T14:30:50;99962.16;;;25.75;38.51
19777;BME280;10047;42.490;26.012;2022-09-20T14:33:18;99966.38;;;23.16;40.92
19777;BME280;10047;42.490;26.012;2022-09-20T14:35:49;99936.69;;;25.31;37.81
19777;BME280;10047;42.490;26.012;2022-09-20T14:38:25;99977.78;;;25.37;35.59
19777;BME280;10047;42.490;26.012;2022-09-20T14:40:51;99967.63;;;25.34;35.90
19777;BME280;10047;42.490;26.012;2022-09-20T14:43:28;100005.63;;;23.22;38.90
19777;BME280;10047;42.490;26.012;2022-09-20T14:45:57;99980.09;;;21.38;41.45
19777;BME280;10047;42.490;26.012;2022-09-20T14:53:44;100003.97;;;21.89;41.89
19777;BME280;10047;42.490;26.012;2022-09-20T14:56:12;100009.34;;;21.62;42.46
19777;BME280;10047;42.490;26.012;2022-09-20T15:01:30;99974.69;;;21.41;43.83
19777;BME280;10047;42.490;26.012;2022-09-20T15:03:56;99995.88;;;21.46;44.47
19777;BME280;10047;42.490;26.012;2022-09-20T15:06:23;99980.09;;;21.38;45.47
19777;BME280;10047;42.490;26.012;2022-09-20T15:08:49;100003.91;;;21.30;45.62
19777;BME280;10047;42.490;26.012;2022-09-20T15:11:16;99987.63;;;21.17;45.14
19777;BME280;10047;42.490;26.012;2022-09-20T15:13:42;99952.22;;;20.58;45.34
19777;BME280;10047;42.490;26.012;2022-09-20T15:16:07;99979.88;;;21.76;44.02
19777;BME280;10047;42.490;26.012;2022-09-20T15:18:38;99981.97;;;20.63;44.88
19777;BME280;10047;42.490;26.012;2022-09-20T15:21:05;100010.47;;;20.74;47.17
19777;BME280;10047;42.490;26.012;2022-09-20T15:23:30;99982.50;;;20.43;47.50
19777;BME280;10047;42.490;26.012;2022-09-20T15:25:56;100015.88;;;20.46;49.27
19777;BME280;10047;42.490;26.012;2022-09-20T15:28:22;99983.75;;;20.38;49.08
19777;BME280;10047;42.490;26.012;2022-09-20T15:30:49;100009.78;;;20.47;48.10
19777;BME280;10047;42.490;26.012;2022-09-20T15:33:16;99987.63;;;20.06;48.05
19777;BME280;10047;42.490;26.012;2022-09-20T15:35:43;99988.25;;;20.09;48.12
19777;BME280;10047;42.490;26.012;2022-09-20T15:38:10;100019.97;;;20.11;48.99
19777;BME280;10047;42.490;26.012;2022-09-20T15:40:44;100024.28;;;19.98;48.52
19777;BME280;10047;42.490;26.012;2022-09-20T15:43:12;100022.00;;;19.94;48.39
19777;BME280;10047;42.490;26.012;2022-09-20T15:45:49;100032.22;;;19.56;48.60
19777;BME280;10047;42.490;26.012;2022-09-20T15:48:19;100034.41;;;19.62;49.70
19777;BME280;10047;42.490;26.012;2022-09-20T15:51:05;100031.44;;;19.68;49.73
19777;BME280;10047;42.490;26.012;2022-09-20T15:53:39;100005.75;;;19.26;50.24
19777;BME280;10047;42.490;26.012;2022-09-20T15:58:43;100038.72;;;19.49;51.34
19777;BME280;10047;42.490;26.012;2022-09-20T16:01:10;100031.38;;;19.29;50.76
19777;BME280;10047;42.490;26.012;2022-09-20T16:03:35;100037.19;;;19.18;51.23
19777;BME280;10047;42.490;26.012;2022-09-20T16:06:03;99999.63;;;18.73;51.48
19777;BME280;10047;42.490;26.012;2022-09-20T16:08:37;100035.00;;;19.12;51.65
19777;BME280;10047;42.490;26.012;2022-09-20T16:11:04;100032.63;;;19.09;51.37
19777;BME280;10047;42.490;26.012;2022-09-20T16:13:29;100005.38;;;19.05;52.34
19777;BME280;10047;42.490;26.012;2022-09-20T16:16:00;100033.28;;;18.70;53.65
19777;BME280;10047;42.490;26.012;2022-09-20T16:18:26;99985.28;;;18.55;53.33
19777;BME280;10047;42.490;26.012;2022-09-20T16:21:12;100043.78;;;18.53;54.91
19777;BME280;10047;42.490;26.012;2022-09-20T16:23:39;99985.22;;;18.13;55.75
19777;BME280;10047;42.490;26.012;2022-09-20T16:26:06;100007.91;;;18.50;56.54
19777;BME280;10047;42.490;26.012;2022-09-20T16:28:33;100006.78;;;18.26;57.44
19777;BME280;10047;42.490;26.012;2022-09-20T16:31:00;100044.34;;;18.29;58.50
19777;BME280;10047;42.490;26.012;2022-09-20T16:33:26;100047.56;;;18.48;58.30
19777;BME280;10047;42.490;26.012;2022-09-20T16:35:51;100052.88;;;18.45;57.92
19777;BME280;10047;42.490;26.012;2022-09-20T16:38:17;100052.63;;;18.49;57.66
19777;BME280;10047;42.490;26.012;2022-09-20T16:40:43;100055.78;;;18.39;59.20
19777;BME280;10047;42.490;26.012;2022-09-20T16:43:12;100024.38;;;18.04;61.77
19777;BME280;10047;42.490;26.012;2022-09-20T16:45:42;100031.56;;;18.13;60.96
19777;BME280;10047;42.490;26.012;2022-09-20T16:48:14;100000.69;;;17.83;63.25
19777;BME280;10047;42.490;26.012;2022-09-20T16:50:40;100067.50;;;18.14;62.58
19777;BME280;10047;42.490;26.012;2022-09-20T16:53:05;100033.19;;;18.00;63.38
19777;BME280;10047;42.490;26.012;2022-09-20T16:55:31;100076.88;;;17.86;64.68
19777;BME280;10047;42.490;26.012;2022-09-20T16:57:57;100035.38;;;17.62;65.19
19777;BME280;10047;42.490;26.012;2022-09-20T17:00:23;100061.53;;;18.14;64.80
19777;BME280;10047;42.490;26.012;2022-09-20T17:02:49;100040.91;;;18.00;65.91
19777;BME280;10047;42.490;26.012;2022-09-20T17:05:15;100074.31;;;17.86;67.50
19777;BME280;10047;42.490;26.012;2022-09-20T17:07:40;100039.81;;;17.74;66.91
19777;BME280;10047;42.490;26.012;2022-09-20T17:10:08;100055.69;;;17.96;64.76
19777;BME280;10047;42.490;26.012;2022-09-20T17:12:34;100073.72;;;17.96;65.94
19777;BME280;10047;42.490;26.012;2022-09-20T17:15:07;100072.56;;;17.71;68.11
19777;BME280;10047;42.490;26.012;2022-09-20T17:17:32;100044.69;;;17.79;66.48
19777;BME280;10047;42.490;26.012;2022-09-20T17:19:58;100082.13;;;17.53;71.06
19777;BME280;10047;42.490;26.012;2022-09-20T17:22:27;100087.22;;;17.55;69.68
19777;BME280;10047;42.490;26.012;2022-09-20T17:24:53;100097.47;;;17.70;68.53
19777;BME280;10047;42.490;26.012;2022-09-20T17:27:18;100104.59;;;17.81;69.08
19777;BME280;10047;42.490;26.012;2022-09-20T17:29:44;100062.50;;;17.52;71.50
19777;BME280;10047;42.490;26.012;2022-09-20T17:32:09;100090.34;;;17.60;70.87
19777;BME280;10047;42.490;26.012;2022-09-20T17:34:35;100100.19;;;17.36;73.51
19777;BME280;10047;42.490;26.012;2022-09-20T17:37:00;100044.91;;;17.29;72.95
19777;BME280;10047;42.490;26.012;2022-09-20T17:39:27;100067.84;;;17.32;73.41
19777;BME280;10047;42.490;26.012;2022-09-20T17:41:52;100091.16;;;17.45;74.05
19777;BME280;10047;42.490;26.012;2022-09-20T17:44:18;100098.06;;;17.60;73.30
19777;BME280;10047;42.490;26.012;2022-09-20T17:46:45;100119.22;;;17.65;74.37
19777;BME280;10047;42.490;26.012;2022-09-20T17:49:18;100097.53;;;17.38;77.23
19777;BME280;10047;42.490;26.012;2022-09-20T17:51:49;100129.34;;;17.52;78.10
19777;BME280;10047;42.490;26.012;2022-09-20T17:54:15;100124.19;;;17.52;78.78
19777;BME280;10047;42.490;26.012;2022-09-20T17:56:49;100090.75;;;17.21;79.51
19777;BME280;10047;42.490;26.012;2022-09-20T17:59:38;100135.00;;;17.59;80.30
19777;BME280;10047;42.490;26.012;2022-09-20T18:02:03;100139.56;;;17.21;83.04
19777;BME280;10047;42.490;26.012;2022-09-20T18:04:29;100110.56;;;17.34;82.76
19777;BME280;10047;42.490;26.012;2022-09-20T18:06:54;100123.78;;;17.11;85.00
19777;BME280;10047;42.490;26.012;2022-09-20T18:09:24;100137.38;;;17.62;84.87
19777;BME280;10047;42.490;26.012;2022-09-20T18:11:51;100101.69;;;17.24;83.47
19777;BME280;10047;42.490;26.012;2022-09-20T18:14:19;100147.72;;;17.45;83.05
19777;BME280;10047;42.490;26.012;2022-09-20T18:16:57;100136.41;;;17.31;87.67